PWSweather.com
Personal Weather Stations
Station Observations
KTXPLANO70
Kemper Estates, Plano, TX

Kemper EstatesPlano, TX

Lat: 33.0674, Lon: -96.7659

Elevation: 737

Station Type: Davis Vantage Pro2

http://www.dallasdawg.com

High Low Average
Temperature 71.7°F22.1°C 65.4°F18.6°C 68.1°F20.1°C
Dew Point 69.5°F20.8°C 65.1°F18.4°C 67.4°F19.7°C
Winds 4.6 mph 7.4 kmh Calm Calm 1.0 mph ESE1.6 kmh ESE
Wind Gusts 9.2 mph14.8 kmh -- 3.0 mph4.8 kmh
Humidity 99% 91% 97%
Pressure 29.96 in1014.6 mb 29.87 in1011.5 mb -
Precipitation 0.10 in2.5 mm - -
Hour Temp Dew Point Humidity Winds Wind Gusts Pressure Precip Precip Rate Daily Precip Total
12:00 AM 67.7°F19.8°C 67.1°F19.5°C 98% 3.5 mph NE5.6 kmh NE 8.1 mph13.0 kmh 29.90 in1012.5 mb - 0.00 in0.0 mm 0.00 in0.0 mm
12:10 AM 67.7°F19.8°C 67.1°F19.5°C 98% 3.5 mph N5.6 kmh N 5.8 mph9.3 kmh 29.90 in1012.5 mb - 0.00 in0.0 mm 0.00 in0.0 mm
12:15 AM 67.7°F19.8°C 67.1°F19.5°C 98% Calm Calm 1.2 mph1.9 kmh 29.90 in1012.5 mb - 0.00 in0.0 mm 0.00 in0.0 mm
12:20 AM 67.7°F19.8°C 67.1°F19.5°C 98% 1.2 mph NNW1.9 kmh NNW 3.5 mph5.6 kmh 29.91 in1012.9 mb - 0.00 in0.0 mm 0.00 in0.0 mm
12:25 AM 67.7°F19.8°C 67.1°F19.5°C 98% 2.3 mph N3.7 kmh N 4.6 mph7.4 kmh 29.91 in1012.9 mb - 0.00 in0.0 mm 0.00 in0.0 mm
12:30 AM 67.3°F19.6°C 66.7°F19.3°C 98% 3.5 mph NNE5.6 kmh NNE 4.6 mph7.4 kmh 29.91 in1012.9 mb - 0.00 in0.0 mm 0.00 in0.0 mm
12:35 AM 67.2°F19.6°C 66.6°F19.2°C 98% 3.5 mph NNE5.6 kmh NNE 6.9 mph11.1 kmh 29.91 in1012.9 mb - 0.01 in0.3 mm 0.01 in0.3 mm
12:40 AM 67.1°F19.5°C 66.5°F19.2°C 98% 3.5 mph NE5.6 kmh NE 5.8 mph9.3 kmh 29.91 in1012.9 mb - 0.01 in0.3 mm 0.01 in0.3 mm
12:45 AM 67.2°F19.6°C 66.6°F19.2°C 98% 3.5 mph NE5.6 kmh NE 3.5 mph5.6 kmh 29.91 in1012.9 mb - 0.02 in0.5 mm 0.02 in0.5 mm
12:50 AM 67.2°F19.6°C 66.6°F19.2°C 98% 4.6 mph NNE7.4 kmh NNE 8.1 mph13.0 kmh 29.91 in1012.9 mb - 0.03 in0.8 mm 0.03 in0.8 mm
12:55 AM 67.2°F19.6°C 66.6°F19.2°C 98% 2.3 mph NE3.7 kmh NE 10.4 mph16.7 kmh 29.91 in1012.9 mb - 0.04 in1.0 mm 0.04 in1.0 mm
01:00 AM 67.0°F19.4°C 66.4°F19.1°C 98% 2.3 mph N3.7 kmh N 4.6 mph7.4 kmh 29.91 in1012.9 mb - 0.05 in1.3 mm 0.05 in1.3 mm
01:10 AM 66.6°F19.2°C 66.0°F18.9°C 98% 4.6 mph NE7.4 kmh NE 6.9 mph11.1 kmh 29.91 in1012.9 mb - 0.06 in1.5 mm 0.06 in1.5 mm
01:15 AM 66.4°F19.1°C 65.8°F18.8°C 98% 3.5 mph NE5.6 kmh NE 9.2 mph14.8 kmh 29.91 in1012.9 mb - 0.06 in1.5 mm 0.06 in1.5 mm
01:20 AM 66.3°F19.1°C 65.7°F18.7°C 98% 2.3 mph NE3.7 kmh NE 6.9 mph11.1 kmh 29.91 in1012.9 mb - 0.06 in1.5 mm 0.06 in1.5 mm
01:25 AM 66.3°F19.1°C 65.7°F18.7°C 98% 3.5 mph NE5.6 kmh NE 8.1 mph13.0 kmh 29.90 in1012.5 mb - 0.06 in1.5 mm 0.06 in1.5 mm
01:30 AM 66.2°F19.0°C 65.6°F18.7°C 98% 3.5 mph NNE5.6 kmh NNE 4.6 mph7.4 kmh 29.91 in1012.9 mb - 0.06 in1.5 mm 0.06 in1.5 mm
01:35 AM 66.2°F19.0°C 65.6°F18.7°C 98% 4.6 mph NNE7.4 kmh NNE 9.2 mph14.8 kmh 29.91 in1012.9 mb - 0.05 in1.3 mm 0.06 in1.5 mm
01:40 AM 66.3°F19.1°C 65.7°F18.7°C 98% 3.5 mph ENE5.6 kmh ENE 3.5 mph5.6 kmh 29.91 in1012.9 mb - 0.05 in1.3 mm 0.06 in1.5 mm
01:45 AM 66.3°F19.1°C 65.7°F18.7°C 98% 3.5 mph NE5.6 kmh NE 4.6 mph7.4 kmh 29.91 in1012.9 mb - 0.05 in1.3 mm 0.07 in1.8 mm
01:50 AM 66.3°F19.1°C 65.7°F18.7°C 98% 2.3 mph NE3.7 kmh NE 3.5 mph5.6 kmh 29.90 in1012.5 mb - 0.04 in1.0 mm 0.07 in1.8 mm
01:55 AM 66.4°F19.1°C 65.8°F18.8°C 98% 3.5 mph NE5.6 kmh NE 5.8 mph9.3 kmh 29.90 in1012.5 mb - 0.03 in0.8 mm 0.07 in1.8 mm
02:00 AM 66.5°F19.2°C 65.9°F18.8°C 98% 2.3 mph NE3.7 kmh NE 5.8 mph9.3 kmh 29.90 in1012.5 mb - 0.03 in0.8 mm 0.07 in1.8 mm
02:10 AM 66.5°F19.2°C 65.9°F18.8°C 98% 3.5 mph NE5.6 kmh NE 4.6 mph7.4 kmh 29.91 in1012.9 mb - 0.01 in0.3 mm 0.07 in1.8 mm
02:15 AM 66.5°F19.2°C 65.9°F18.8°C 98% 3.5 mph NE5.6 kmh NE 5.8 mph9.3 kmh 29.91 in1012.9 mb - 0.01 in0.3 mm 0.07 in1.8 mm
02:20 AM 66.5°F19.2°C 66.0°F18.9°C 98% Calm Calm 3.5 mph5.6 kmh 29.91 in1012.9 mb - 0.01 in0.3 mm 0.07 in1.8 mm
02:25 AM 66.5°F19.2°C 65.9°F18.8°C 98% 2.3 mph NE3.7 kmh NE 5.8 mph9.3 kmh 29.91 in1012.9 mb - 0.01 in0.3 mm 0.07 in1.8 mm
02:30 AM 66.4°F19.1°C 65.9°F18.8°C 98% 1.2 mph N1.9 kmh N 4.6 mph7.4 kmh 29.91 in1012.9 mb - 0.01 in0.3 mm 0.07 in1.8 mm
02:35 AM 66.4°F19.1°C 65.8°F18.8°C 98% Calm Calm 3.5 mph5.6 kmh 29.90 in1012.5 mb - 0.01 in0.3 mm 0.07 in1.8 mm
02:40 AM 66.3°F19.1°C 65.7°F18.7°C 98% 2.3 mph NW3.7 kmh NW 3.5 mph5.6 kmh 29.91 in1012.9 mb - 0.01 in0.3 mm 0.07 in1.8 mm
02:45 AM 66.4°F19.1°C 65.8°F18.8°C 98% 1.2 mph N1.9 kmh N 5.8 mph9.3 kmh 29.90 in1012.5 mb - 0.01 in0.3 mm 0.07 in1.8 mm
02:50 AM 66.4°F19.1°C 65.8°F18.8°C 98% Calm Calm 1.2 mph1.9 kmh 29.90 in1012.5 mb - 0.00 in0.0 mm 0.07 in1.8 mm
02:55 AM 66.3°F19.1°C 65.7°F18.7°C 98% 2.3 mph N3.7 kmh N 4.6 mph7.4 kmh 29.90 in1012.5 mb - 0.00 in0.0 mm 0.07 in1.8 mm
03:00 AM 66.3°F19.1°C 65.7°F18.7°C 98% 1.2 mph NE1.9 kmh NE 3.5 mph5.6 kmh 29.90 in1012.5 mb - 0.00 in0.0 mm 0.07 in1.8 mm
03:10 AM 66.4°F19.1°C 65.8°F18.8°C 98% 1.2 mph NNE1.9 kmh NNE 5.8 mph9.3 kmh 29.90 in1012.5 mb - 0.00 in0.0 mm 0.07 in1.8 mm
03:15 AM 66.3°F19.1°C 65.7°F18.7°C 98% 3.5 mph NE5.6 kmh NE 3.5 mph5.6 kmh 29.90 in1012.5 mb - 0.00 in0.0 mm 0.07 in1.8 mm
03:20 AM 66.3°F19.1°C 65.7°F18.7°C 98% 1.2 mph NNE1.9 kmh NNE 5.8 mph9.3 kmh 29.90 in1012.5 mb - 0.00 in0.0 mm 0.07 in1.8 mm
03:25 AM 66.3°F19.1°C 65.7°F18.7°C 98% 2.3 mph NNE3.7 kmh NNE 8.1 mph13.0 kmh 29.90 in1012.5 mb - 0.00 in0.0 mm 0.07 in1.8 mm
03:30 AM 66.3°F19.1°C 65.7°F18.7°C 98% 2.3 mph ENE3.7 kmh ENE 3.5 mph5.6 kmh 29.90 in1012.5 mb - 0.00 in0.0 mm 0.07 in1.8 mm
03:35 AM 66.3°F19.1°C 65.7°F18.7°C 98% 2.3 mph NE3.7 kmh NE 2.3 mph3.7 kmh 29.89 in1012.2 mb - 0.00 in0.0 mm 0.07 in1.8 mm
03:40 AM 66.3°F19.1°C 66.0°F18.9°C 99% 1.2 mph ENE1.9 kmh ENE 3.5 mph5.6 kmh 29.89 in1012.2 mb - 0.00 in0.0 mm 0.07 in1.8 mm
03:45 AM 66.3°F19.1°C 66.0°F18.9°C 99% 2.3 mph NNE3.7 kmh NNE 3.5 mph5.6 kmh 29.89 in1012.2 mb - 0.00 in0.0 mm 0.07 in1.8 mm
03:50 AM 66.3°F19.1°C 66.0°F18.9°C 99% 2.3 mph NE3.7 kmh NE 4.6 mph7.4 kmh 29.89 in1012.2 mb - 0.00 in0.0 mm 0.07 in1.8 mm
03:55 AM 66.3°F19.1°C 65.7°F18.7°C 98% 3.5 mph NE5.6 kmh NE 9.2 mph14.8 kmh 29.89 in1012.2 mb - 0.00 in0.0 mm 0.07 in1.8 mm
04:00 AM 66.4°F19.1°C 65.8°F18.8°C 98% 4.6 mph NE7.4 kmh NE 4.6 mph7.4 kmh 29.89 in1012.2 mb - 0.00 in0.0 mm 0.07 in1.8 mm
04:10 AM 66.4°F19.1°C 65.9°F18.8°C 98% 3.5 mph NE5.6 kmh NE 6.9 mph11.1 kmh 29.89 in1012.2 mb - 0.00 in0.0 mm 0.07 in1.8 mm
04:15 AM 66.4°F19.1°C 65.8°F18.8°C 98% 2.3 mph ENE3.7 kmh ENE 4.6 mph7.4 kmh 29.88 in1011.9 mb - 0.00 in0.0 mm 0.07 in1.8 mm
04:20 AM 66.5°F19.2°C 65.9°F18.8°C 98% 2.3 mph NNE3.7 kmh NNE 4.6 mph7.4 kmh 29.88 in1011.9 mb - 0.00 in0.0 mm 0.07 in1.8 mm
04:25 AM 66.4°F19.1°C 65.8°F18.8°C 98% 3.5 mph NE5.6 kmh NE 3.5 mph5.6 kmh 29.88 in1011.9 mb - 0.00 in0.0 mm 0.07 in1.8 mm
04:30 AM 66.4°F19.1°C 65.8°F18.8°C 98% 1.2 mph NE1.9 kmh NE 1.2 mph1.9 kmh 29.88 in1011.9 mb - 0.00 in0.0 mm 0.07 in1.8 mm
04:35 AM 66.5°F19.2°C 66.2°F19.0°C 99% 1.2 mph NE1.9 kmh NE 5.8 mph9.3 kmh 29.88 in1011.9 mb - 0.00 in0.0 mm 0.07 in1.8 mm
04:40 AM 66.4°F19.1°C 65.8°F18.8°C 98% 1.2 mph N1.9 kmh N 1.2 mph1.9 kmh 29.88 in1011.9 mb - 0.00 in0.0 mm 0.07 in1.8 mm
04:45 AM 66.4°F19.1°C 65.8°F18.8°C 98% 1.2 mph NNE1.9 kmh NNE 4.6 mph7.4 kmh 29.88 in1011.9 mb - 0.00 in0.0 mm 0.07 in1.8 mm
04:50 AM 66.5°F19.2°C 66.2°F19.0°C 99% Calm Calm 1.2 mph1.9 kmh 29.88 in1011.9 mb - 0.00 in0.0 mm 0.07 in1.8 mm
04:55 AM 66.5°F19.2°C 66.2°F19.0°C 99% 1.2 mph NE1.9 kmh NE 5.8 mph9.3 kmh 29.88 in1011.9 mb - 0.00 in0.0 mm 0.07 in1.8 mm
05:00 AM 66.4°F19.1°C 66.1°F18.9°C 99% Calm Calm 3.5 mph5.6 kmh 29.88 in1011.9 mb - 0.00 in0.0 mm 0.07 in1.8 mm
05:10 AM 66.3°F19.1°C 66.0°F18.9°C 99% 1.2 mph N1.9 kmh N 3.5 mph5.6 kmh 29.88 in1011.9 mb - 0.00 in0.0 mm 0.07 in1.8 mm
05:15 AM 66.3°F19.1°C 66.1°F18.9°C 99% Calm Calm -- 29.89 in1012.2 mb - 0.00 in0.0 mm 0.07 in1.8 mm
05:20 AM 66.4°F19.1°C 66.1°F18.9°C 99% 1.2 mph 1.9 kmh 3.5 mph5.6 kmh 29.89 in1012.2 mb - 0.00 in0.0 mm 0.07 in1.8 mm
05:25 AM 66.4°F19.1°C 66.1°F18.9°C 99% 1.2 mph N1.9 kmh N 3.5 mph5.6 kmh 29.89 in1012.2 mb - 0.01 in0.3 mm 0.08 in2.0 mm
05:30 AM 66.4°F19.1°C 66.1°F18.9°C 99% Calm Calm 3.5 mph5.6 kmh 29.89 in1012.2 mb - 0.01 in0.3 mm 0.08 in2.0 mm
05:35 AM 66.3°F19.1°C 66.1°F18.9°C 99% 1.2 mph NE1.9 kmh NE 2.3 mph3.7 kmh 29.89 in1012.2 mb - 0.01 in0.3 mm 0.08 in2.0 mm
05:40 AM 66.3°F19.1°C 66.0°F18.9°C 99% 2.3 mph NE3.7 kmh NE 4.6 mph7.4 kmh 29.89 in1012.2 mb - 0.01 in0.3 mm 0.08 in2.0 mm
05:45 AM 66.1°F18.9°C 65.8°F18.8°C 99% 3.5 mph NNE5.6 kmh NNE 4.6 mph7.4 kmh 29.89 in1012.2 mb - 0.01 in0.3 mm 0.08 in2.0 mm
05:50 AM 66.0°F18.9°C 65.7°F18.7°C 99% 4.6 mph N7.4 kmh N 9.2 mph14.8 kmh 29.89 in1012.2 mb - 0.01 in0.3 mm 0.08 in2.0 mm
05:55 AM 65.9°F18.8°C 65.4°F18.6°C 98% 2.3 mph N3.7 kmh N 3.5 mph5.6 kmh 29.89 in1012.2 mb - 0.01 in0.3 mm 0.08 in2.0 mm
06:00 AM 65.8°F18.8°C 65.5°F18.6°C 99% 2.3 mph NE3.7 kmh NE 3.5 mph5.6 kmh 29.89 in1012.2 mb - 0.01 in0.3 mm 0.08 in2.0 mm
06:10 AM 65.9°F18.8°C 65.6°F18.7°C 99% Calm Calm 1.2 mph1.9 kmh 29.89 in1012.2 mb - 0.01 in0.3 mm 0.08 in2.0 mm
06:15 AM 65.8°F18.8°C 65.5°F18.6°C 99% Calm Calm 1.2 mph1.9 kmh 29.89 in1012.2 mb - 0.01 in0.3 mm 0.08 in2.0 mm
06:20 AM 65.8°F18.8°C 65.5°F18.6°C 99% 1.2 mph NNE1.9 kmh NNE 6.9 mph11.1 kmh 29.89 in1012.2 mb - 0.01 in0.3 mm 0.08 in2.0 mm
06:25 AM 65.7°F18.7°C 65.4°F18.6°C 99% 3.5 mph N5.6 kmh N 4.6 mph7.4 kmh 29.89 in1012.2 mb - 0.00 in0.0 mm 0.08 in2.0 mm
06:30 AM 65.6°F18.7°C 65.3°F18.5°C 99% 3.5 mph NE5.6 kmh NE 5.8 mph9.3 kmh 29.89 in1012.2 mb - 0.00 in0.0 mm 0.08 in2.0 mm
06:35 AM 65.5°F18.6°C 65.2°F18.4°C 99% 1.2 mph ENE1.9 kmh ENE 4.6 mph7.4 kmh 29.90 in1012.5 mb - 0.00 in0.0 mm 0.08 in2.0 mm
06:40 AM 65.5°F18.6°C 65.2°F18.4°C 99% 3.5 mph NE5.6 kmh NE 8.1 mph13.0 kmh 29.90 in1012.5 mb - 0.00 in0.0 mm 0.08 in2.0 mm
06:45 AM 65.4°F18.6°C 65.1°F18.4°C 99% 4.6 mph NNE7.4 kmh NNE 8.1 mph13.0 kmh 29.90 in1012.5 mb - 0.00 in0.0 mm 0.08 in2.0 mm
06:50 AM 65.4°F18.6°C 65.1°F18.4°C 99% 3.5 mph NE5.6 kmh NE 4.6 mph7.4 kmh 29.90 in1012.5 mb - 0.00 in0.0 mm 0.08 in2.0 mm
06:55 AM 65.4°F18.6°C 65.1°F18.4°C 99% 1.2 mph NE1.9 kmh NE 1.2 mph1.9 kmh 29.90 in1012.5 mb - 0.00 in0.0 mm 0.08 in2.0 mm
07:00 AM 65.4°F18.6°C 65.1°F18.4°C 99% 3.5 mph NE5.6 kmh NE 4.6 mph7.4 kmh 29.90 in1012.5 mb - 0.00 in0.0 mm 0.08 in2.0 mm
07:10 AM 65.4°F18.6°C 65.1°F18.4°C 99% 2.3 mph ENE3.7 kmh ENE 2.3 mph3.7 kmh 29.90 in1012.5 mb - 0.00 in0.0 mm 0.08 in2.0 mm
07:15 AM 65.5°F18.6°C 65.2°F18.4°C 99% 3.5 mph NE5.6 kmh NE 5.8 mph9.3 kmh 29.90 in1012.5 mb - 0.00 in0.0 mm 0.08 in2.0 mm
07:20 AM 65.5°F18.6°C 65.2°F18.4°C 99% 1.2 mph ENE1.9 kmh ENE 3.5 mph5.6 kmh 29.90 in1012.5 mb - 0.00 in0.0 mm 0.08 in2.0 mm
07:25 AM 65.6°F18.7°C 65.3°F18.5°C 99% 2.3 mph NE3.7 kmh NE 4.6 mph7.4 kmh 29.91 in1012.9 mb - 0.00 in0.0 mm 0.08 in2.0 mm
07:30 AM 65.7°F18.7°C 65.4°F18.6°C 99% 2.3 mph N3.7 kmh N 3.5 mph5.6 kmh 29.91 in1012.9 mb - 0.00 in0.0 mm 0.08 in2.0 mm
07:35 AM 65.6°F18.7°C 65.3°F18.5°C 99% 1.2 mph NE1.9 kmh NE 4.6 mph7.4 kmh 29.91 in1012.9 mb - 0.00 in0.0 mm 0.08 in2.0 mm
07:40 AM 65.6°F18.7°C 65.3°F18.5°C 99% 1.2 mph NE1.9 kmh NE 1.2 mph1.9 kmh 29.91 in1012.9 mb - 0.00 in0.0 mm 0.08 in2.0 mm
07:45 AM 65.6°F18.7°C 65.3°F18.5°C 99% 1.2 mph NE1.9 kmh NE 5.8 mph9.3 kmh 29.91 in1012.9 mb - 0.00 in0.0 mm 0.08 in2.0 mm
07:50 AM 65.5°F18.6°C 65.2°F18.4°C 99% 2.3 mph NNE3.7 kmh NNE 4.6 mph7.4 kmh 29.91 in1012.9 mb - 0.00 in0.0 mm 0.08 in2.0 mm
07:55 AM 65.5°F18.6°C 65.2°F18.4°C 99% 1.2 mph NNE1.9 kmh NNE 3.5 mph5.6 kmh 29.92 in1013.2 mb - 0.00 in0.0 mm 0.08 in2.0 mm
08:00 AM 65.5°F18.6°C 65.2°F18.4°C 99% 1.2 mph N1.9 kmh N 3.5 mph5.6 kmh 29.92 in1013.2 mb - 0.00 in0.0 mm 0.08 in2.0 mm
08:10 AM 65.5°F18.6°C 65.2°F18.4°C 99% 1.2 mph NE1.9 kmh NE 5.8 mph9.3 kmh 29.92 in1013.2 mb - 0.00 in0.0 mm 0.08 in2.0 mm
08:15 AM 65.5°F18.6°C 65.2°F18.4°C 99% Calm Calm 1.2 mph1.9 kmh 29.92 in1013.2 mb - 0.00 in0.0 mm 0.08 in2.0 mm
08:20 AM 65.5°F18.6°C 65.2°F18.4°C 99% 2.3 mph NE3.7 kmh NE 4.6 mph7.4 kmh 29.92 in1013.2 mb - 0.00 in0.0 mm 0.08 in2.0 mm
08:25 AM 65.6°F18.7°C 65.3°F18.5°C 99% 1.2 mph NNE1.9 kmh NNE 6.9 mph11.1 kmh 29.92 in1013.2 mb - 0.00 in0.0 mm 0.08 in2.0 mm
08:30 AM 65.7°F18.7°C 65.4°F18.6°C 99% Calm Calm 1.2 mph1.9 kmh 29.92 in1013.2 mb - 0.00 in0.0 mm 0.08 in2.0 mm
08:35 AM 65.6°F18.7°C 65.3°F18.5°C 99% Calm Calm 2.3 mph3.7 kmh 29.92 in1013.2 mb - 0.00 in0.0 mm 0.08 in2.0 mm
08:40 AM 65.7°F18.7°C 65.4°F18.6°C 99% 1.2 mph N1.9 kmh N 6.9 mph11.1 kmh 29.92 in1013.2 mb - 0.00 in0.0 mm 0.08 in2.0 mm
08:45 AM 65.6°F18.7°C 65.3°F18.5°C 99% 3.5 mph NNE5.6 kmh NNE 6.9 mph11.1 kmh 29.92 in1013.2 mb - 0.00 in0.0 mm 0.08 in2.0 mm
08:50 AM 65.6°F18.7°C 65.3°F18.5°C 99% 2.3 mph NNW3.7 kmh NNW 3.5 mph5.6 kmh 29.93 in1013.5 mb - 0.00 in0.0 mm 0.08 in2.0 mm
08:55 AM 65.6°F18.7°C 65.3°F18.5°C 99% 2.3 mph NNE3.7 kmh NNE 3.5 mph5.6 kmh 29.93 in1013.5 mb - 0.00 in0.0 mm 0.08 in2.0 mm
09:00 AM 65.7°F18.7°C 65.4°F18.6°C 99% 1.2 mph N1.9 kmh N 3.5 mph5.6 kmh 29.92 in1013.2 mb - 0.00 in0.0 mm 0.08 in2.0 mm
09:10 AM 65.7°F18.7°C 65.4°F18.6°C 99% 1.2 mph NE1.9 kmh NE 3.5 mph5.6 kmh 29.93 in1013.5 mb - 0.00 in0.0 mm 0.08 in2.0 mm
09:15 AM 65.7°F18.7°C 65.4°F18.6°C 99% 2.3 mph NNW3.7 kmh NNW 4.6 mph7.4 kmh 29.92 in1013.2 mb - 0.00 in0.0 mm 0.08 in2.0 mm
09:20 AM 65.8°F18.8°C 65.5°F18.6°C 99% 2.3 mph NNE3.7 kmh NNE 4.6 mph7.4 kmh 29.92 in1013.2 mb - 0.00 in0.0 mm 0.08 in2.0 mm
09:25 AM 65.7°F18.7°C 65.4°F18.6°C 99% 1.2 mph NNE1.9 kmh NNE 3.5 mph5.6 kmh 29.93 in1013.5 mb - 0.00 in0.0 mm 0.08 in2.0 mm
09:30 AM 65.8°F18.8°C 65.5°F18.6°C 99% 3.5 mph NNE5.6 kmh NNE 6.9 mph11.1 kmh 29.93 in1013.5 mb - 0.00 in0.0 mm 0.08 in2.0 mm
09:35 AM 65.9°F18.8°C 65.6°F18.7°C 99% 1.2 mph NE1.9 kmh NE 4.6 mph7.4 kmh 29.93 in1013.5 mb - 0.00 in0.0 mm 0.08 in2.0 mm
09:40 AM 65.8°F18.8°C 65.5°F18.6°C 99% 3.5 mph NE5.6 kmh NE 3.5 mph5.6 kmh 29.93 in1013.5 mb - 0.00 in0.0 mm 0.08 in2.0 mm
09:45 AM 65.9°F18.8°C 65.6°F18.7°C 99% 2.3 mph NNE3.7 kmh NNE 4.6 mph7.4 kmh 29.93 in1013.5 mb - 0.00 in0.0 mm 0.08 in2.0 mm
09:50 AM 65.9°F18.8°C 65.6°F18.7°C 99% 3.5 mph NE5.6 kmh NE 5.8 mph9.3 kmh 29.93 in1013.5 mb - 0.00 in0.0 mm 0.08 in2.0 mm
09:55 AM 66.0°F18.9°C 65.7°F18.7°C 99% 3.5 mph NE5.6 kmh NE 4.6 mph7.4 kmh 29.94 in1013.9 mb - 0.00 in0.0 mm 0.08 in2.0 mm
10:00 AM 66.2°F19.0°C 65.9°F18.8°C 99% 2.3 mph N3.7 kmh N 4.6 mph7.4 kmh 29.94 in1013.9 mb - 0.00 in0.0 mm 0.08 in2.0 mm
10:10 AM 66.2°F19.0°C 65.9°F18.8°C 99% 3.5 mph NE5.6 kmh NE 4.6 mph7.4 kmh 29.95 in1014.2 mb - 0.00 in0.0 mm 0.08 in2.0 mm
10:15 AM 66.3°F19.1°C 66.0°F18.9°C 99% Calm Calm 2.3 mph3.7 kmh 29.95 in1014.2 mb - 0.00 in0.0 mm 0.08 in2.0 mm
10:20 AM 66.2°F19.0°C 65.9°F18.8°C 99% 2.3 mph NE3.7 kmh NE 5.8 mph9.3 kmh 29.95 in1014.2 mb - 0.00 in0.0 mm 0.08 in2.0 mm
10:25 AM 66.3°F19.1°C 66.0°F18.9°C 99% Calm Calm 1.2 mph1.9 kmh 29.95 in1014.2 mb - 0.00 in0.0 mm 0.08 in2.0 mm
10:30 AM 66.3°F19.1°C 66.0°F18.9°C 99% 2.3 mph NNW3.7 kmh NNW 4.6 mph7.4 kmh 29.95 in1014.2 mb - 0.00 in0.0 mm 0.08 in2.0 mm
10:35 AM 66.2°F19.0°C 65.9°F18.8°C 99% 1.2 mph NE1.9 kmh NE 5.8 mph9.3 kmh 29.95 in1014.2 mb - 0.00 in0.0 mm 0.08 in2.0 mm
10:40 AM 66.3°F19.1°C 66.0°F18.9°C 99% 3.5 mph NE5.6 kmh NE 4.6 mph7.4 kmh 29.95 in1014.2 mb - 0.00 in0.0 mm 0.08 in2.0 mm
10:45 AM 66.3°F19.1°C 66.0°F18.9°C 99% 2.3 mph NE3.7 kmh NE 3.5 mph5.6 kmh 29.95 in1014.2 mb - 0.00 in0.0 mm 0.08 in2.0 mm
10:50 AM 66.3°F19.1°C 66.0°F18.9°C 99% 3.5 mph NNE5.6 kmh NNE 4.6 mph7.4 kmh 29.95 in1014.2 mb - 0.00 in0.0 mm 0.08 in2.0 mm
10:55 AM 66.4°F19.1°C 66.1°F18.9°C 99% 1.2 mph NNE1.9 kmh NNE 3.5 mph5.6 kmh 29.95 in1014.2 mb - 0.00 in0.0 mm 0.08 in2.0 mm
11:00 AM 66.4°F19.1°C 66.1°F18.9°C 99% 3.5 mph NE5.6 kmh NE 4.6 mph7.4 kmh 29.95 in1014.2 mb - 0.00 in0.0 mm 0.08 in2.0 mm
11:10 AM 66.4°F19.1°C 66.1°F18.9°C 99% 1.2 mph NE1.9 kmh NE 3.5 mph5.6 kmh 29.96 in1014.6 mb - 0.00 in0.0 mm 0.08 in2.0 mm
11:15 AM 66.5°F19.2°C 66.2°F19.0°C 99% 1.2 mph NE1.9 kmh NE 3.5 mph5.6 kmh 29.96 in1014.6 mb - 0.00 in0.0 mm 0.08 in2.0 mm
11:20 AM 66.5°F19.2°C 66.2°F19.0°C 99% 1.2 mph NE1.9 kmh NE 3.5 mph5.6 kmh 29.96 in1014.6 mb - 0.00 in0.0 mm 0.08 in2.0 mm
11:25 AM 66.3°F19.1°C 66.1°F18.9°C 99% 4.6 mph NNE7.4 kmh NNE 5.8 mph9.3 kmh 29.96 in1014.6 mb - 0.00 in0.0 mm 0.08 in2.0 mm
11:30 AM 66.3°F19.1°C 66.0°F18.9°C 99% 3.5 mph NE5.6 kmh NE 3.5 mph5.6 kmh 29.96 in1014.6 mb - 0.00 in0.0 mm 0.08 in2.0 mm
11:35 AM 66.4°F19.1°C 66.1°F18.9°C 99% 3.5 mph NE5.6 kmh NE 5.8 mph9.3 kmh 29.96 in1014.6 mb - 0.00 in0.0 mm 0.08 in2.0 mm
11:40 AM 66.5°F19.2°C 66.2°F19.0°C 99% 2.3 mph NE3.7 kmh NE 4.6 mph7.4 kmh 29.96 in1014.6 mb - 0.00 in0.0 mm 0.08 in2.0 mm
11:45 AM 66.5°F19.2°C 66.2°F19.0°C 99% 2.3 mph NE3.7 kmh NE 5.8 mph9.3 kmh 29.96 in1014.6 mb - 0.00 in0.0 mm 0.08 in2.0 mm
11:50 AM 66.6°F19.2°C 66.4°F19.1°C 99% 2.3 mph N3.7 kmh N 3.5 mph5.6 kmh 29.96 in1014.6 mb - 0.00 in0.0 mm 0.08 in2.0 mm
11:55 AM 66.8°F19.3°C 66.5°F19.2°C 99% 2.3 mph NE3.7 kmh NE 4.6 mph7.4 kmh 29.96 in1014.6 mb - 0.00 in0.0 mm 0.08 in2.0 mm
12:00 PM 66.8°F19.3°C 66.5°F19.2°C 99% 1.2 mph NE1.9 kmh NE 3.5 mph5.6 kmh 29.96 in1014.6 mb - 0.00 in0.0 mm 0.08 in2.0 mm
12:10 PM 66.8°F19.3°C 66.5°F19.2°C 99% 2.3 mph 3.7 kmh 4.6 mph7.4 kmh 29.95 in1014.2 mb - 0.00 in0.0 mm 0.08 in2.0 mm
12:15 PM 67.1°F19.5°C 66.8°F19.3°C 99% 2.3 mph NNE3.7 kmh NNE 6.9 mph11.1 kmh 29.95 in1014.2 mb - 0.00 in0.0 mm 0.08 in2.0 mm
12:20 PM 67.2°F19.6°C 66.9°F19.4°C 99% 2.3 mph NNE3.7 kmh NNE 4.6 mph7.4 kmh 29.95 in1014.2 mb - 0.00 in0.0 mm 0.08 in2.0 mm
12:25 PM 67.4°F19.7°C 67.1°F19.5°C 99% 1.2 mph NE1.9 kmh NE 3.5 mph5.6 kmh 29.95 in1014.2 mb - 0.00 in0.0 mm 0.08 in2.0 mm
12:30 PM 67.6°F19.8°C 67.3°F19.6°C 99% 1.2 mph NE1.9 kmh NE 3.5 mph5.6 kmh 29.95 in1014.2 mb - 0.00 in0.0 mm 0.08 in2.0 mm
12:35 PM 67.8°F19.9°C 67.5°F19.7°C 99% 1.2 mph N1.9 kmh N 4.6 mph7.4 kmh 29.95 in1014.2 mb - 0.00 in0.0 mm 0.08 in2.0 mm
12:40 PM 67.7°F19.8°C 67.4°F19.7°C 99% 1.2 mph NE1.9 kmh NE 3.5 mph5.6 kmh 29.95 in1014.2 mb - 0.00 in0.0 mm 0.08 in2.0 mm
12:45 PM 67.9°F19.9°C 67.6°F19.8°C 99% 1.2 mph NNW1.9 kmh NNW 4.6 mph7.4 kmh 29.95 in1014.2 mb - 0.00 in0.0 mm 0.08 in2.0 mm
12:50 PM 68.4°F20.2°C 68.1°F20.1°C 99% Calm Calm -- 29.94 in1013.9 mb - 0.00 in0.0 mm 0.08 in2.0 mm
12:55 PM 68.8°F20.4°C 68.5°F20.3°C 99% 1.2 mph NW1.9 kmh NW 5.8 mph9.3 kmh 29.94 in1013.9 mb - 0.00 in0.0 mm 0.08 in2.0 mm
01:00 PM 68.5°F20.3°C 67.9°F19.9°C 98% 1.2 mph N1.9 kmh N 3.5 mph5.6 kmh 29.94 in1013.9 mb - 0.00 in0.0 mm 0.08 in2.0 mm
01:10 PM 69.9°F21.1°C 69.3°F20.7°C 98% 1.2 mph WNW1.9 kmh WNW 3.5 mph5.6 kmh 29.93 in1013.5 mb - 0.00 in0.0 mm 0.08 in2.0 mm
01:15 PM 69.8°F21.0°C 68.9°F20.5°C 97% 2.3 mph NW3.7 kmh NW 3.5 mph5.6 kmh 29.94 in1013.9 mb - 0.00 in0.0 mm 0.08 in2.0 mm
01:20 PM 70.0°F21.1°C 68.8°F20.4°C 96% 2.3 mph NNE3.7 kmh NNE 3.5 mph5.6 kmh 29.94 in1013.9 mb - 0.00 in0.0 mm 0.08 in2.0 mm
01:25 PM 70.2°F21.2°C 69.0°F20.6°C 96% 1.2 mph N1.9 kmh N 4.6 mph7.4 kmh 29.94 in1013.9 mb - 0.00 in0.0 mm 0.08 in2.0 mm
01:30 PM 70.1°F21.2°C 68.6°F20.3°C 95% 1.2 mph N1.9 kmh N 2.3 mph3.7 kmh 29.93 in1013.5 mb - 0.00 in0.0 mm 0.08 in2.0 mm
01:35 PM 70.1°F21.2°C 68.6°F20.3°C 95% 2.3 mph N3.7 kmh N 3.5 mph5.6 kmh 29.93 in1013.5 mb - 0.00 in0.0 mm 0.08 in2.0 mm
01:40 PM 70.1°F21.2°C 68.6°F20.3°C 95% 2.3 mph NNW3.7 kmh NNW 6.9 mph11.1 kmh 29.93 in1013.5 mb - 0.00 in0.0 mm 0.08 in2.0 mm
01:45 PM 69.8°F21.0°C 68.4°F20.2°C 95% 2.3 mph NW3.7 kmh NW 3.5 mph5.6 kmh 29.93 in1013.5 mb - 0.00 in0.0 mm 0.08 in2.0 mm
01:50 PM 69.7°F20.9°C 68.2°F20.1°C 95% 1.2 mph NNW1.9 kmh NNW 5.8 mph9.3 kmh 29.93 in1013.5 mb - 0.00 in0.0 mm 0.08 in2.0 mm
01:55 PM 69.6°F20.9°C 68.1°F20.1°C 95% 2.3 mph NNE3.7 kmh NNE 3.5 mph5.6 kmh 29.93 in1013.5 mb - 0.00 in0.0 mm 0.08 in2.0 mm
02:00 PM 69.5°F20.8°C 68.0°F20.0°C 95% 2.3 mph NNE3.7 kmh NNE 6.9 mph11.1 kmh 29.93 in1013.5 mb - 0.00 in0.0 mm 0.08 in2.0 mm
02:10 PM 69.6°F20.9°C 68.1°F20.1°C 95% 1.2 mph NNE1.9 kmh NNE 2.3 mph3.7 kmh 29.92 in1013.2 mb - 0.00 in0.0 mm 0.08 in2.0 mm
02:15 PM 69.6°F20.9°C 68.1°F20.1°C 95% 2.3 mph NNE3.7 kmh NNE 3.5 mph5.6 kmh 29.91 in1012.9 mb - 0.00 in0.0 mm 0.08 in2.0 mm
02:20 PM 69.6°F20.9°C 68.1°F20.1°C 95% 3.5 mph N5.6 kmh N 5.8 mph9.3 kmh 29.91 in1012.9 mb - 0.00 in0.0 mm 0.08 in2.0 mm
02:25 PM 69.7°F20.9°C 68.2°F20.1°C 95% 3.5 mph NE5.6 kmh NE 5.8 mph9.3 kmh 29.91 in1012.9 mb - 0.00 in0.0 mm 0.08 in2.0 mm
02:30 PM 69.6°F20.9°C 68.1°F20.1°C 95% 1.2 mph NNE1.9 kmh NNE 3.5 mph5.6 kmh 29.91 in1012.9 mb - 0.00 in0.0 mm 0.08 in2.0 mm
02:35 PM 69.5°F20.8°C 68.0°F20.0°C 95% 2.3 mph NW3.7 kmh NW 3.5 mph5.6 kmh 29.91 in1012.9 mb - 0.00 in0.0 mm 0.08 in2.0 mm
02:40 PM 69.4°F20.8°C 67.9°F19.9°C 95% 3.5 mph N5.6 kmh N 3.5 mph5.6 kmh 29.90 in1012.5 mb - 0.00 in0.0 mm 0.08 in2.0 mm
02:45 PM 69.5°F20.8°C 68.3°F20.2°C 96% 1.2 mph NNW1.9 kmh NNW 3.5 mph5.6 kmh 29.90 in1012.5 mb - 0.00 in0.0 mm 0.08 in2.0 mm
02:50 PM 69.8°F21.0°C 68.3°F20.2°C 95% 1.2 mph N1.9 kmh N 2.3 mph3.7 kmh 29.90 in1012.5 mb - 0.00 in0.0 mm 0.08 in2.0 mm
02:55 PM 70.0°F21.1°C 68.5°F20.3°C 95% 1.2 mph WNW1.9 kmh WNW 3.5 mph5.6 kmh 29.90 in1012.5 mb - 0.00 in0.0 mm 0.08 in2.0 mm
03:00 PM 70.0°F21.1°C 68.1°F20.1°C 94% 3.5 mph NNW5.6 kmh NNW 4.6 mph7.4 kmh 29.89 in1012.2 mb - 0.00 in0.0 mm 0.08 in2.0 mm
03:10 PM 70.0°F21.1°C 68.2°F20.1°C 94% 1.2 mph NW1.9 kmh NW 3.5 mph5.6 kmh 29.89 in1012.2 mb - 0.00 in0.0 mm 0.08 in2.0 mm
03:15 PM 70.1°F21.2°C 68.3°F20.2°C 94% Calm Calm 1.2 mph1.9 kmh 29.89 in1012.2 mb - 0.00 in0.0 mm 0.08 in2.0 mm
03:20 PM 70.3°F21.3°C 68.8°F20.4°C 95% Calm Calm 3.5 mph5.6 kmh 29.89 in1012.2 mb - 0.00 in0.0 mm 0.08 in2.0 mm
03:25 PM 70.4°F21.3°C 68.6°F20.3°C 94% 1.2 mph N1.9 kmh N 3.5 mph5.6 kmh 29.89 in1012.2 mb - 0.00 in0.0 mm 0.08 in2.0 mm
03:30 PM 70.5°F21.4°C 68.7°F20.4°C 94% 1.2 mph NW1.9 kmh NW 3.5 mph5.6 kmh 29.89 in1012.2 mb - 0.00 in0.0 mm 0.08 in2.0 mm
03:35 PM 70.4°F21.3°C 68.6°F20.3°C 94% 1.2 mph NNE1.9 kmh NNE 3.5 mph5.6 kmh 29.89 in1012.2 mb - 0.00 in0.0 mm 0.08 in2.0 mm
03:40 PM 70.8°F21.6°C 68.6°F20.3°C 93% 2.3 mph NE3.7 kmh NE 3.5 mph5.6 kmh 29.89 in1012.2 mb - 0.00 in0.0 mm 0.08 in2.0 mm
03:45 PM 71.0°F21.7°C 68.9°F20.5°C 93% Calm Calm 3.5 mph5.6 kmh 29.89 in1012.2 mb - 0.00 in0.0 mm 0.08 in2.0 mm
03:50 PM 70.8°F21.6°C 68.7°F20.4°C 93% Calm Calm 2.3 mph3.7 kmh 29.89 in1012.2 mb - 0.00 in0.0 mm 0.08 in2.0 mm
03:55 PM 70.9°F21.6°C 68.8°F20.4°C 93% 2.3 mph NW3.7 kmh NW 4.6 mph7.4 kmh 29.88 in1011.9 mb - 0.00 in0.0 mm 0.08 in2.0 mm
04:00 PM 70.9°F21.6°C 69.1°F20.6°C 94% 2.3 mph NW3.7 kmh NW 4.6 mph7.4 kmh 29.88 in1011.9 mb - 0.00 in0.0 mm 0.08 in2.0 mm
04:10 PM 70.9°F21.6°C 68.8°F20.4°C 93% 1.2 mph NNW1.9 kmh NNW 2.3 mph3.7 kmh 29.88 in1011.9 mb - 0.00 in0.0 mm 0.08 in2.0 mm
04:15 PM 71.0°F21.7°C 69.2°F20.7°C 94% 1.2 mph NE1.9 kmh NE 2.3 mph3.7 kmh 29.88 in1011.9 mb - 0.00 in0.0 mm 0.08 in2.0 mm
04:20 PM 71.2°F21.8°C 69.0°F20.6°C 93% 2.3 mph E3.7 kmh E 3.5 mph5.6 kmh 29.88 in1011.9 mb - 0.00 in0.0 mm 0.08 in2.0 mm
04:25 PM 71.5°F21.9°C 69.4°F20.8°C 93% 2.3 mph N3.7 kmh N 3.5 mph5.6 kmh 29.88 in1011.9 mb - 0.00 in0.0 mm 0.08 in2.0 mm
04:30 PM 71.6°F22.0°C 69.2°F20.7°C 92% 1.2 mph NE1.9 kmh NE 3.5 mph5.6 kmh 29.88 in1011.9 mb - 0.00 in0.0 mm 0.08 in2.0 mm
04:35 PM 71.7°F22.1°C 68.9°F20.5°C 91% 2.3 mph NE3.7 kmh NE 3.5 mph5.6 kmh 29.88 in1011.9 mb - 0.00 in0.0 mm 0.08 in2.0 mm
04:40 PM 71.5°F21.9°C 69.1°F20.6°C 92% 2.3 mph NE3.7 kmh NE 3.5 mph5.6 kmh 29.88 in1011.9 mb - 0.00 in0.0 mm 0.08 in2.0 mm
04:45 PM 71.3°F21.8°C 68.8°F20.4°C 92% 2.3 mph NE3.7 kmh NE 3.5 mph5.6 kmh 29.88 in1011.9 mb - 0.00 in0.0 mm 0.08 in2.0 mm
04:50 PM 71.2°F21.8°C 68.8°F20.4°C 92% Calm Calm 1.2 mph1.9 kmh 29.88 in1011.9 mb - 0.00 in0.0 mm 0.08 in2.0 mm
04:55 PM 71.2°F21.8°C 69.1°F20.6°C 93% 2.3 mph NE3.7 kmh NE 2.3 mph3.7 kmh 29.88 in1011.9 mb - 0.00 in0.0 mm 0.08 in2.0 mm
05:00 PM 71.1°F21.7°C 69.0°F20.6°C 93% 2.3 mph NE3.7 kmh NE 3.5 mph5.6 kmh 29.88 in1011.9 mb - 0.00 in0.0 mm 0.08 in2.0 mm
05:10 PM 70.9°F21.6°C 69.1°F20.6°C 94% Calm Calm 2.3 mph3.7 kmh 29.88 in1011.9 mb - 0.00 in0.0 mm 0.08 in2.0 mm
05:15 PM 70.9°F21.6°C 68.8°F20.4°C 93% 1.2 mph N1.9 kmh N 1.2 mph1.9 kmh 29.88 in1011.9 mb - 0.00 in0.0 mm 0.08 in2.0 mm
05:20 PM 71.0°F21.7°C 68.8°F20.4°C 93% Calm Calm -- 29.88 in1011.9 mb - 0.00 in0.0 mm 0.08 in2.0 mm
05:25 PM 70.9°F21.6°C 69.1°F20.6°C 94% 1.2 mph N1.9 kmh N 2.3 mph3.7 kmh 29.88 in1011.9 mb - 0.00 in0.0 mm 0.08 in2.0 mm
05:30 PM 70.9°F21.6°C 68.8°F20.4°C 93% Calm Calm -- 29.88 in1011.9 mb - 0.00 in0.0 mm 0.08 in2.0 mm
05:35 PM 70.9°F21.6°C 68.8°F20.4°C 93% 1.2 mph N1.9 kmh N 2.3 mph3.7 kmh 29.88 in1011.9 mb - 0.00 in0.0 mm 0.08 in2.0 mm
05:40 PM 70.9°F21.6°C 69.1°F20.6°C 94% Calm Calm 1.2 mph1.9 kmh 29.88 in1011.9 mb - 0.00 in0.0 mm 0.08 in2.0 mm
05:45 PM 70.8°F21.6°C 69.0°F20.6°C 94% Calm Calm -- 29.88 in1011.9 mb - 0.00 in0.0 mm 0.08 in2.0 mm
05:50 PM 70.8°F21.6°C 69.0°F20.6°C 94% Calm Calm 2.3 mph3.7 kmh 29.88 in1011.9 mb - 0.00 in0.0 mm 0.08 in2.0 mm
05:55 PM 70.8°F21.6°C 69.0°F20.6°C 94% 1.2 mph N1.9 kmh N 3.5 mph5.6 kmh 29.88 in1011.9 mb - 0.00 in0.0 mm 0.08 in2.0 mm
06:00 PM 70.8°F21.6°C 69.0°F20.6°C 94% 1.2 mph NW1.9 kmh NW 2.3 mph3.7 kmh 29.88 in1011.9 mb - 0.00 in0.0 mm 0.08 in2.0 mm
06:10 PM 70.6°F21.4°C 68.8°F20.4°C 94% 1.2 mph NW1.9 kmh NW 2.3 mph3.7 kmh 29.87 in1011.5 mb - 0.00 in0.0 mm 0.08 in2.0 mm
06:15 PM 70.6°F21.4°C 68.8°F20.4°C 94% Calm Calm -- 29.87 in1011.5 mb - 0.00 in0.0 mm 0.08 in2.0 mm
06:20 PM 70.5°F21.4°C 68.7°F20.4°C 94% 1.2 mph NW1.9 kmh NW 3.5 mph5.6 kmh 29.87 in1011.5 mb - 0.00 in0.0 mm 0.08 in2.0 mm
06:25 PM 70.4°F21.3°C 68.9°F20.5°C 95% Calm Calm 2.3 mph3.7 kmh 29.88 in1011.9 mb - 0.00 in0.0 mm 0.08 in2.0 mm
06:30 PM 70.3°F21.3°C 68.8°F20.4°C 95% 1.2 mph NNW1.9 kmh NNW 3.5 mph5.6 kmh 29.88 in1011.9 mb - 0.00 in0.0 mm 0.08 in2.0 mm
06:35 PM 70.4°F21.3°C 68.9°F20.5°C 95% 2.3 mph N3.7 kmh N 3.5 mph5.6 kmh 29.88 in1011.9 mb - 0.00 in0.0 mm 0.08 in2.0 mm
06:40 PM 70.3°F21.3°C 68.8°F20.4°C 95% 1.2 mph NW1.9 kmh NW 3.5 mph5.6 kmh 29.88 in1011.9 mb - 0.00 in0.0 mm 0.08 in2.0 mm
06:45 PM 70.2°F21.2°C 68.7°F20.4°C 95% 1.2 mph NNW1.9 kmh NNW 2.3 mph3.7 kmh 29.88 in1011.9 mb - 0.00 in0.0 mm 0.08 in2.0 mm
06:50 PM 70.1°F21.2°C 69.0°F20.6°C 96% Calm Calm 2.3 mph3.7 kmh 29.88 in1011.9 mb - 0.00 in0.0 mm 0.08 in2.0 mm
06:55 PM 70.0°F21.1°C 68.9°F20.5°C 96% Calm Calm 1.2 mph1.9 kmh 29.88 in1011.9 mb - 0.00 in0.0 mm 0.08 in2.0 mm
07:00 PM 70.0°F21.1°C 68.8°F20.4°C 96% 1.2 mph NNW1.9 kmh NNW 2.3 mph3.7 kmh 29.88 in1011.9 mb - 0.00 in0.0 mm 0.08 in2.0 mm
07:10 PM 69.8°F21.0°C 68.9°F20.5°C 97% Calm Calm -- 29.88 in1011.9 mb - 0.00 in0.0 mm 0.08 in2.0 mm
07:15 PM 69.8°F21.0°C 68.9°F20.5°C 97% Calm Calm 1.2 mph1.9 kmh 29.88 in1011.9 mb - 0.00 in0.0 mm 0.08 in2.0 mm
07:20 PM 69.8°F21.0°C 68.9°F20.5°C 97% 1.2 mph N1.9 kmh N 2.3 mph3.7 kmh 29.88 in1011.9 mb - 0.00 in0.0 mm 0.08 in2.0 mm
07:25 PM 69.7°F20.9°C 68.8°F20.4°C 97% Calm Calm -- 29.88 in1011.9 mb - 0.00 in0.0 mm 0.08 in2.0 mm
07:30 PM 69.7°F20.9°C 68.8°F20.4°C 97% 1.2 mph N1.9 kmh N 1.2 mph1.9 kmh 29.87 in1011.5 mb - 0.00 in0.0 mm 0.08 in2.0 mm
07:35 PM 69.7°F20.9°C 68.8°F20.4°C 97% Calm Calm -- 29.87 in1011.5 mb - 0.00 in0.0 mm 0.08 in2.0 mm
07:40 PM 69.7°F20.9°C 68.8°F20.4°C 97% Calm Calm 2.3 mph3.7 kmh 29.88 in1011.9 mb - 0.00 in0.0 mm 0.08 in2.0 mm
07:45 PM 69.7°F20.9°C 69.1°F20.6°C 98% Calm Calm 3.5 mph5.6 kmh 29.88 in1011.9 mb - 0.00 in0.0 mm 0.08 in2.0 mm
07:50 PM 69.7°F20.9°C 69.1°F20.6°C 98% 1.2 mph NNW1.9 kmh NNW 3.5 mph5.6 kmh 29.88 in1011.9 mb - 0.00 in0.0 mm 0.08 in2.0 mm
07:55 PM 69.6°F20.9°C 69.0°F20.6°C 98% 1.2 mph NNW1.9 kmh NNW 3.5 mph5.6 kmh 29.88 in1011.9 mb - 0.01 in0.3 mm 0.09 in2.3 mm
08:00 PM 69.6°F20.9°C 69.0°F20.6°C 98% 2.3 mph N3.7 kmh N 3.5 mph5.6 kmh 29.88 in1011.9 mb - 0.01 in0.3 mm 0.09 in2.3 mm
08:10 PM 69.6°F20.9°C 69.1°F20.6°C 98% Calm Calm -- 29.88 in1011.9 mb - 0.01 in0.3 mm 0.09 in2.3 mm
08:15 PM 69.7°F20.9°C 69.1°F20.6°C 98% 1.2 mph N1.9 kmh N 2.3 mph3.7 kmh 29.88 in1011.9 mb - 0.01 in0.3 mm 0.09 in2.3 mm
08:20 PM 69.7°F20.9°C 69.1°F20.6°C 98% Calm Calm 2.3 mph3.7 kmh 29.88 in1011.9 mb - 0.01 in0.3 mm 0.09 in2.3 mm
08:25 PM 69.6°F20.9°C 69.0°F20.6°C 98% 1.2 mph N1.9 kmh N 1.2 mph1.9 kmh 29.88 in1011.9 mb - 0.01 in0.3 mm 0.09 in2.3 mm
08:30 PM 69.6°F20.9°C 69.0°F20.6°C 98% 2.3 mph NE3.7 kmh NE 3.5 mph5.6 kmh 29.88 in1011.9 mb - 0.01 in0.3 mm 0.09 in2.3 mm
08:35 PM 69.5°F20.8°C 68.9°F20.5°C 98% 3.5 mph N5.6 kmh N 4.6 mph7.4 kmh 29.89 in1012.2 mb - 0.01 in0.3 mm 0.09 in2.3 mm
08:40 PM 69.5°F20.8°C 68.9°F20.5°C 98% 1.2 mph NE1.9 kmh NE 3.5 mph5.6 kmh 29.89 in1012.2 mb - 0.01 in0.3 mm 0.09 in2.3 mm
08:45 PM 69.5°F20.8°C 68.9°F20.5°C 98% 3.5 mph NE5.6 kmh NE 4.6 mph7.4 kmh 29.89 in1012.2 mb - 0.01 in0.3 mm 0.09 in2.3 mm
08:50 PM 69.5°F20.8°C 68.9°F20.5°C 98% 1.2 mph NE1.9 kmh NE 4.6 mph7.4 kmh 29.89 in1012.2 mb - 0.01 in0.3 mm 0.09 in2.3 mm
08:55 PM 69.5°F20.8°C 68.9°F20.5°C 98% Calm Calm -- 29.89 in1012.2 mb - 0.00 in0.0 mm 0.09 in2.3 mm
09:00 PM 69.5°F20.8°C 68.9°F20.5°C 98% 1.2 mph NE1.9 kmh NE 3.5 mph5.6 kmh 29.89 in1012.2 mb - 0.00 in0.0 mm 0.09 in2.3 mm
09:10 PM 69.5°F20.8°C 68.9°F20.5°C 98% Calm Calm 1.2 mph1.9 kmh 29.90 in1012.5 mb - 0.00 in0.0 mm 0.09 in2.3 mm
09:15 PM 69.6°F20.9°C 69.0°F20.6°C 98% Calm Calm -- 29.90 in1012.5 mb - 0.00 in0.0 mm 0.09 in2.3 mm
09:20 PM 69.6°F20.9°C 69.0°F20.6°C 98% Calm Calm -- 29.90 in1012.5 mb - 0.00 in0.0 mm 0.09 in2.3 mm
09:25 PM 69.6°F20.9°C 69.0°F20.6°C 98% Calm Calm -- 29.90 in1012.5 mb - 0.00 in0.0 mm 0.09 in2.3 mm
09:30 PM 69.5°F20.8°C 68.9°F20.5°C 98% Calm Calm -- 29.90 in1012.5 mb - 0.00 in0.0 mm 0.09 in2.3 mm
09:35 PM 69.5°F20.8°C 68.9°F20.5°C 98% Calm Calm -- 29.90 in1012.5 mb - 0.00 in0.0 mm 0.09 in2.3 mm
09:40 PM 69.5°F20.8°C 68.9°F20.5°C 98% Calm Calm -- 29.90 in1012.5 mb - 0.00 in0.0 mm 0.09 in2.3 mm
09:45 PM 69.5°F20.8°C 68.9°F20.5°C 98% Calm Calm -- 29.90 in1012.5 mb - 0.00 in0.0 mm 0.09 in2.3 mm
09:50 PM 69.6°F20.9°C 69.0°F20.6°C 98% Calm Calm -- 29.91 in1012.9 mb - 0.01 in0.3 mm 0.10 in2.5 mm
09:55 PM 69.6°F20.9°C 69.0°F20.6°C 98% Calm Calm -- 29.91 in1012.9 mb - 0.01 in0.3 mm 0.10 in2.5 mm
10:00 PM 69.6°F20.9°C 69.0°F20.6°C 98% Calm Calm -- 29.91 in1012.9 mb - 0.01 in0.3 mm 0.10 in2.5 mm
10:10 PM 69.7°F20.9°C 69.1°F20.6°C 98% Calm Calm -- 29.91 in1012.9 mb - 0.01 in0.3 mm 0.10 in2.5 mm
10:15 PM 69.7°F20.9°C 69.1°F20.6°C 98% Calm Calm -- 29.91 in1012.9 mb - 0.01 in0.3 mm 0.10 in2.5 mm
10:20 PM 69.7°F20.9°C 69.1°F20.6°C 98% Calm Calm -- 29.90 in1012.5 mb - 0.01 in0.3 mm 0.10 in2.5 mm
10:25 PM 69.7°F20.9°C 69.1°F20.6°C 98% Calm Calm -- 29.90 in1012.5 mb - 0.01 in0.3 mm 0.10 in2.5 mm
10:30 PM 69.7°F20.9°C 69.1°F20.6°C 98% Calm Calm -- 29.90 in1012.5 mb - 0.01 in0.3 mm 0.10 in2.5 mm
10:35 PM 69.7°F20.9°C 69.1°F20.6°C 98% Calm Calm -- 29.90 in1012.5 mb - 0.01 in0.3 mm 0.10 in2.5 mm
10:40 PM 69.7°F20.9°C 69.1°F20.6°C 98% Calm Calm -- 29.90 in1012.5 mb - 0.01 in0.3 mm 0.10 in2.5 mm
10:45 PM 69.6°F20.9°C 69.1°F20.6°C 98% Calm Calm -- 29.90 in1012.5 mb - 0.01 in0.3 mm 0.10 in2.5 mm
10:50 PM 69.7°F20.9°C 69.1°F20.6°C 98% Calm Calm -- 29.90 in1012.5 mb - 0.01 in0.3 mm 0.10 in2.5 mm
10:55 PM 69.6°F20.9°C 69.0°F20.6°C 98% Calm Calm -- 29.90 in1012.5 mb - 0.00 in0.0 mm 0.10 in2.5 mm
11:00 PM 69.6°F20.9°C 69.0°F20.6°C 98% Calm Calm -- 29.90 in1012.5 mb - 0.00 in0.0 mm 0.10 in2.5 mm
11:10 PM 69.7°F20.9°C 69.1°F20.6°C 98% Calm Calm -- 29.90 in1012.5 mb - 0.00 in0.0 mm 0.10 in2.5 mm
11:15 PM 69.7°F20.9°C 69.1°F20.6°C 98% Calm Calm -- 29.90 in1012.5 mb - 0.00 in0.0 mm 0.10 in2.5 mm
11:20 PM 69.7°F20.9°C 69.1°F20.6°C 98% 1.2 mph E1.9 kmh E 2.3 mph3.7 kmh 29.90 in1012.5 mb - 0.00 in0.0 mm 0.10 in2.5 mm
11:25 PM 69.7°F20.9°C 69.1°F20.6°C 98% 1.2 mph E1.9 kmh E 2.3 mph3.7 kmh 29.90 in1012.5 mb - 0.00 in0.0 mm 0.10 in2.5 mm
11:30 PM 69.7°F20.9°C 69.1°F20.6°C 98% Calm Calm 3.5 mph5.6 kmh 29.90 in1012.5 mb - 0.00 in0.0 mm 0.10 in2.5 mm
11:35 PM 69.7°F20.9°C 69.1°F20.6°C 98% 1.2 mph NE1.9 kmh NE 3.5 mph5.6 kmh 29.91 in1012.9 mb - 0.00 in0.0 mm 0.10 in2.5 mm
11:40 PM 69.7°F20.9°C 69.4°F20.8°C 99% Calm Calm 3.5 mph5.6 kmh 29.91 in1012.9 mb - 0.00 in0.0 mm 0.10 in2.5 mm
11:45 PM 69.7°F20.9°C 69.1°F20.6°C 98% 1.2 mph NE1.9 kmh NE 2.3 mph3.7 kmh 29.91 in1012.9 mb - 0.00 in0.0 mm 0.10 in2.5 mm
11:50 PM 69.8°F21.0°C 69.2°F20.7°C 98% Calm Calm 1.2 mph1.9 kmh 29.91 in1012.9 mb - 0.00 in0.0 mm 0.10 in2.5 mm
11:55 PM 69.7°F20.9°C 69.1°F20.6°C 98% Calm Calm 1.2 mph1.9 kmh 29.91 in1012.9 mb - 0.00 in0.0 mm 0.10 in2.5 mm